createdAt,value
2018-07-20T00:01:13.307Z,6.07
2018-07-20T00:03:50.689Z,7.53
2018-07-20T00:06:25.786Z,5.47
2018-07-20T00:08:59.406Z,5.93
2018-07-20T00:11:34.519Z,7.93
2018-07-20T00:14:10.179Z,4.30
2018-07-20T00:16:43.898Z,5.13
2018-07-20T00:19:19.643Z,7.50
2018-07-20T00:21:52.438Z,5.10
2018-07-20T00:24:28.083Z,5.70
2018-07-20T00:27:01.686Z,5.63
2018-07-20T00:29:35.466Z,8.40
2018-07-20T00:32:12.163Z,5.20
2018-07-20T00:34:45.835Z,6.67
2018-07-20T00:37:20.507Z,4.37
2018-07-20T00:39:46.061Z,6.87
2018-07-20T00:42:19.094Z,5.60
2018-07-20T00:44:52.873Z,5.00
2018-07-20T00:47:25.652Z,6.47
2018-07-20T00:49:58.352Z,4.40
2018-07-20T00:52:31.114Z,4.10
2018-07-20T00:55:05.865Z,3.73
2018-07-20T00:57:39.281Z,3.73
2018-07-20T01:00:16.374Z,6.23
2018-07-20T01:02:53.713Z,6.80
2018-07-20T01:05:27.924Z,4.53
2018-07-20T01:08:02.520Z,4.17
2018-07-20T01:10:36.161Z,4.53
2018-07-20T01:13:09.073Z,3.90
2018-07-20T01:15:42.837Z,4.03
2018-07-20T01:18:15.700Z,5.33
2018-07-20T01:20:49.341Z,6.77
2018-07-20T01:24:26.788Z,6.93
2018-07-20T01:27:00.402Z,4.53
2018-07-20T01:29:27.834Z,4.77
2018-07-20T01:32:03.086Z,5.10
2018-07-20T01:34:36.027Z,5.40
2018-07-20T01:37:09.747Z,4.33
2018-07-20T01:39:43.215Z,6.50
2018-07-20T01:42:17.266Z,4.57
2018-07-20T01:44:52.950Z,5.17
2018-07-20T01:47:28.761Z,4.20
2018-07-20T01:50:03.316Z,6.53
2018-07-20T01:52:36.296Z,5.53
2018-07-20T01:55:15.559Z,6.47
2018-07-20T01:57:59.071Z,6.47
2018-07-20T02:00:43.779Z,6.40
2018-07-20T02:03:39.790Z,6.97
2018-07-20T02:06:26.524Z,3.77
2018-07-20T02:09:12.833Z,4.27
2018-07-20T02:12:04.868Z,5.50
2018-07-20T02:14:38.344Z,4.47
2018-07-20T02:17:11.260Z,4.73
2018-07-20T02:19:46.330Z,5.03
2018-07-20T02:22:19.046Z,5.10
2018-07-20T02:24:51.962Z,7.20
2018-07-20T02:27:24.926Z,4.77
2018-07-20T02:29:58.981Z,7.27
2018-07-20T02:32:24.788Z,4.30
2018-07-20T02:34:58.880Z,6.43
2018-07-20T02:37:33.954Z,7.47
2018-07-20T02:40:07.904Z,7.33
2018-07-20T02:42:40.915Z,6.30
2018-07-20T02:45:15.137Z,6.93
2018-07-20T02:47:47.804Z,6.40
2018-07-20T02:50:22.649Z,6.67
2018-07-20T02:52:56.729Z,10.90
2018-07-20T02:55:29.541Z,7.57
2018-07-20T02:58:03.535Z,6.27
2018-07-20T03:00:37.477Z,7.47
2018-07-20T03:03:10.208Z,5.43
2018-07-20T03:05:43.329Z,7.93
2018-07-20T03:08:16.211Z,6.13
2018-07-20T03:10:52.141Z,6.80
2018-07-20T03:13:26.964Z,7.23
2018-07-20T03:15:59.887Z,7.00
2018-07-20T03:18:32.875Z,7.93
2018-07-20T03:21:06.995Z,5.10
2018-07-20T03:23:41.768Z,6.20
2018-07-20T03:26:16.794Z,7.80
2018-07-20T03:28:49.616Z,6.03
2018-07-20T03:31:22.628Z,6.20
2018-07-20T03:33:55.654Z,5.47
2018-07-20T03:36:28.767Z,8.93
2018-07-20T03:39:01.652Z,6.30
2018-07-20T03:41:34.559Z,6.07
2018-07-20T03:44:08.509Z,7.90
2018-07-20T03:46:41.301Z,6.70
2018-07-20T03:49:16.270Z,6.83
2018-07-20T03:51:50.269Z,7.20
2018-07-20T03:54:23.146Z,9.80
2018-07-20T03:56:56.897Z,9.77
2018-07-20T03:59:30.697Z,7.77
2018-07-20T04:02:03.814Z,7.87
2018-07-20T04:04:38.761Z,6.47
2018-07-20T04:07:14.861Z,12.23
2018-07-20T04:09:47.876Z,10.07
2018-07-20T04:12:21.247Z,6.70
2018-07-20T04:14:54.426Z,6.40
2018-07-20T04:17:20.332Z,5.10
2018-07-20T04:19:53.375Z,8.50
2018-07-20T04:22:27.374Z,6.47
2018-07-20T04:25:00.570Z,10.13
2018-07-20T04:27:35.430Z,5.43
2018-07-20T04:30:08.517Z,4.77
2018-07-20T04:32:41.443Z,4.93
2018-07-20T04:35:17.465Z,4.20
2018-07-20T04:37:51.672Z,5.93
2018-07-20T04:40:25.840Z,10.37
2018-07-20T04:42:58.878Z,5.07
2018-07-20T04:45:32.628Z,4.40
2018-07-20T04:47:58.174Z,6.70
2018-07-20T04:50:31.347Z,6.20
2018-07-20T04:53:04.230Z,10.17
2018-07-20T04:55:37.234Z,16.40
2018-07-20T04:58:11.222Z,11.83
2018-07-20T05:00:40.582Z,13.33
2018-07-20T05:03:13.844Z,7.17
2018-07-20T05:05:47.885Z,11.23
2018-07-20T05:08:20.908Z,12.67
2018-07-20T05:10:53.839Z,9.07
2018-07-20T05:13:26.737Z,8.37
2018-07-20T05:16:00.804Z,9.13
2018-07-20T05:18:33.600Z,9.77
2018-07-20T05:21:09.571Z,14.10
2018-07-20T05:23:46.256Z,8.23
2018-07-20T05:26:20.984Z,9.00
2018-07-20T05:28:56.725Z,10.57
2018-07-20T05:31:32.318Z,13.67
2018-07-20T05:34:08.226Z,22.20
2018-07-20T05:36:42.007Z,10.60
2018-07-20T05:39:15.131Z,12.90
2018-07-20T05:41:49.645Z,8.40
2018-07-20T05:44:22.939Z,12.77
2018-07-20T05:46:58.378Z,10.00
2018-07-20T05:49:31.465Z,7.67
2018-07-20T05:52:08.940Z,6.83
2018-07-20T05:54:43.076Z,9.20
2018-07-20T05:57:19.113Z,11.30
2018-07-20T05:59:53.752Z,12.53
2018-07-20T06:02:28.899Z,12.03
2018-07-20T06:05:01.976Z,13.30
2018-07-20T06:07:36.218Z,12.77
2018-07-20T06:10:09.104Z,19.57
2018-07-20T06:12:43.090Z,13.23
2018-07-20T06:15:16.089Z,15.90
2018-07-20T06:17:49.156Z,16.00
2018-07-20T06:20:22.867Z,13.87
2018-07-20T06:22:55.953Z,14.67
2018-07-20T06:25:28.990Z,17.40
2018-07-20T06:28:02.077Z,23.00
2018-07-20T06:30:36.660Z,18.63
2018-07-20T06:33:04.127Z,18.13
2018-07-20T06:35:38.300Z,14.93
2018-07-20T06:38:11.348Z,12.70
2018-07-20T06:40:44.315Z,13.32
2018-07-20T06:43:19.025Z,12.55
2018-07-20T06:45:54.411Z,12.57
2018-07-20T06:48:28.179Z,15.83
2018-07-20T06:51:03.576Z,14.07
2018-07-20T06:53:29.263Z,11.75
2018-07-20T06:56:03.931Z,10.35
2018-07-20T06:58:38.264Z,14.70
2018-07-20T07:01:12.219Z,15.48
2018-07-20T07:03:46.316Z,17.10
2018-07-20T07:06:20.077Z,18.65
2018-07-20T07:08:55.327Z,17.52
2018-07-20T07:11:30.932Z,11.73
2018-07-20T07:14:06.045Z,7.42
2018-07-20T07:16:39.868Z,12.03
2018-07-20T07:19:14.563Z,10.58
2018-07-20T07:21:48.909Z,7.80
2018-07-20T07:24:21.811Z,8.83
2018-07-20T07:26:56.686Z,7.97
2018-07-20T07:29:31.461Z,9.65
2018-07-20T07:32:08.602Z,5.53
2018-07-20T07:34:44.306Z,4.72
2018-07-20T07:37:27.488Z,3.75
2018-07-20T07:40:00.906Z,9.45
2018-07-20T07:42:35.689Z,7.28
2018-07-20T07:45:09.414Z,7.80
2018-07-20T07:47:44.259Z,8.45
2018-07-20T07:50:21.808Z,5.90
2018-07-20T07:52:55.654Z,9.45
2018-07-20T07:55:29.492Z,6.22
2018-07-20T07:58:03.218Z,10.28
2018-07-20T08:00:28.841Z,8.10
2018-07-20T08:03:01.938Z,6.33
2018-07-20T08:05:36.655Z,5.47
2018-07-20T08:08:10.489Z,9.73
2018-07-20T08:10:44.413Z,7.12
2018-07-20T08:13:18.299Z,7.05
2018-07-20T08:15:51.210Z,7.00
2018-07-20T08:18:24.973Z,4.55
2018-07-20T08:20:57.863Z,5.28
2018-07-20T08:23:31.293Z,7.72
2018-07-20T08:26:05.920Z,5.08
2018-07-20T08:28:41.798Z,12.07
2018-07-20T08:31:14.714Z,6.45
2018-07-20T08:33:47.600Z,6.83
2018-07-20T08:36:21.387Z,4.03
2018-07-20T08:38:54.361Z,5.67
2018-07-20T08:41:29.924Z,5.75
2018-07-20T08:44:03.170Z,8.43
2018-07-20T08:46:29.943Z,8.18
2018-07-20T08:49:07.503Z,5.05
2018-07-20T08:51:43.361Z,8.43
2018-07-20T08:54:11.045Z,7.70
2018-07-20T08:56:45.183Z,4.67
2018-07-20T08:59:23.038Z,7.03
2018-07-20T09:01:56.035Z,6.28
2018-07-20T09:05:36.298Z,5.53
2018-07-20T09:08:13.219Z,6.03
2018-07-20T09:10:47.445Z,8.28
2018-07-20T09:13:20.136Z,5.87
2018-07-20T09:15:57.245Z,6.95
2018-07-20T09:18:32.077Z,8.70
2018-07-20T09:21:07.863Z,6.35
2018-07-20T09:23:45.457Z,8.05
2018-07-20T09:26:23.547Z,8.65
2018-07-20T09:28:59.660Z,6.37
2018-07-20T09:31:33.334Z,5.97
2018-07-20T09:34:08.009Z,6.97
2018-07-20T09:36:42.910Z,6.40
2018-07-20T09:39:18.682Z,7.25
2018-07-20T09:41:54.590Z,10.53
2018-07-20T09:44:30.168Z,9.00
2018-07-20T09:47:06.981Z,7.03
2018-07-20T09:49:44.893Z,5.70
2018-07-20T09:52:13.692Z,8.78
2018-07-20T09:54:51.775Z,6.78
2018-07-20T09:57:25.826Z,5.78
2018-07-20T10:00:00.464Z,4.97
2018-07-20T10:02:33.271Z,5.92
2018-07-20T10:05:08.043Z,9.90
2018-07-20T10:07:43.037Z,4.12
2018-07-20T10:10:18.030Z,5.80
2018-07-20T10:12:53.051Z,5.37
2018-07-20T10:15:27.427Z,5.12
2018-07-20T10:18:05.161Z,6.95
2018-07-20T10:20:39.837Z,3.77
2018-07-20T10:23:19.053Z,6.12
2018-07-20T10:25:54.554Z,4.30
2018-07-20T10:28:29.511Z,4.87
2018-07-20T10:31:02.576Z,4.28
2018-07-20T10:33:36.631Z,7.47
2018-07-20T10:36:11.320Z,5.30
2018-07-20T10:38:46.431Z,4.22
2018-07-20T10:41:20.724Z,4.33
2018-07-20T10:43:57.376Z,6.67
2018-07-20T10:46:30.699Z,8.78
2018-07-20T10:49:04.445Z,6.83
2018-07-20T10:51:39.606Z,6.70
2018-07-20T10:54:18.448Z,5.40
2018-07-20T10:56:55.129Z,4.72
2018-07-20T10:59:34.029Z,5.25
2018-07-20T11:02:10.160Z,4.95
2018-07-20T11:04:46.923Z,5.95
2018-07-20T11:07:22.880Z,4.10
2018-07-20T11:10:01.396Z,4.33
2018-07-20T11:12:38.372Z,4.90
2018-07-20T11:15:14.463Z,5.83
2018-07-20T11:17:49.489Z,4.90
2018-07-20T11:20:35.982Z,7.85
2018-07-20T11:23:10.986Z,6.60
2018-07-20T11:25:50.056Z,6.03
2018-07-20T11:28:35.532Z,4.60
2018-07-20T11:31:24.863Z,6.58
2018-07-20T11:34:01.930Z,4.30
2018-07-20T11:36:36.242Z,6.08
2018-07-20T11:39:13.799Z,4.12
2018-07-20T11:41:49.181Z,6.78
2018-07-20T11:44:24.691Z,7.78
2018-07-20T11:46:57.659Z,5.00
2018-07-20T11:49:26.119Z,6.65
2018-07-20T11:54:50.243Z,4.37
2018-07-20T11:57:25.428Z,6.05
2018-07-20T11:59:58.313Z,5.30
2018-07-20T12:02:32.416Z,5.90
2018-07-20T12:05:06.207Z,4.00
2018-07-20T12:07:45.333Z,8.18
2018-07-20T12:10:21.123Z,5.65
2018-07-20T12:12:54.944Z,5.72
2018-07-20T12:15:28.370Z,4.08
2018-07-20T12:18:03.777Z,4.37
2018-07-20T12:20:36.782Z,5.35
2018-07-20T12:23:37.161Z,6.33
2018-07-20T12:26:15.986Z,5.47
2018-07-20T12:28:50.811Z,6.62
2018-07-20T12:31:25.751Z,6.03
2018-07-20T12:34:00.575Z,4.03
2018-07-20T12:36:34.261Z,4.90
2018-07-20T12:39:08.855Z,6.28
2018-07-20T12:41:47.956Z,8.68
2018-07-20T12:44:26.751Z,4.30
2018-07-20T12:47:00.752Z,6.03
2018-07-20T12:49:36.238Z,5.22
2018-07-20T12:52:11.615Z,4.15
2018-07-20T12:54:45.421Z,4.50
2018-07-20T12:57:22.328Z,6.30
2018-07-20T12:59:58.325Z,4.87
2018-07-20T13:02:33.637Z,4.25
2018-07-20T13:05:08.562Z,4.58
2018-07-20T13:07:42.234Z,5.83
2018-07-20T13:10:15.108Z,4.12
2018-07-20T13:12:48.227Z,5.35
2018-07-20T13:15:24.374Z,5.20
2018-07-20T13:17:58.443Z,4.65
2018-07-20T13:20:34.073Z,4.15
2018-07-20T13:23:02.995Z,5.90
2018-07-20T13:25:38.548Z,5.60
2018-07-20T13:28:12.341Z,6.10
2018-07-20T13:30:46.272Z,5.20
2018-07-20T13:33:22.205Z,5.35
2018-07-20T13:35:57.802Z,4.50
2018-07-20T13:38:32.583Z,4.80
2018-07-20T13:41:05.542Z,5.53
2018-07-20T13:43:39.417Z,4.15
2018-07-20T13:46:15.231Z,4.30
2018-07-20T13:48:50.065Z,6.37
2018-07-20T13:51:29.104Z,4.67
2018-07-20T13:54:03.871Z,6.15
2018-07-20T13:56:40.080Z,5.60
2018-07-20T13:59:14.676Z,5.33
2018-07-20T14:01:50.297Z,4.47
2018-07-20T14:04:29.473Z,6.95
2018-07-20T14:07:07.900Z,5.25
2018-07-20T14:09:43.757Z,6.80
2018-07-20T14:12:25.293Z,4.60
2018-07-20T14:15:06.387Z,7.12
2018-07-20T14:17:41.330Z,4.95
2018-07-20T14:20:17.255Z,6.28
2018-07-20T14:22:51.134Z,4.62
2018-07-20T14:25:30.100Z,6.17
2018-07-20T14:28:02.979Z,6.20
2018-07-20T14:30:43.788Z,4.75
2018-07-20T14:33:19.419Z,5.58
2018-07-20T14:35:53.235Z,4.78
2018-07-20T14:38:28.091Z,5.87
2018-07-20T14:41:01.905Z,4.15
2018-07-20T14:43:39.599Z,5.03
2018-07-20T14:46:17.823Z,4.85
2018-07-20T14:48:53.330Z,4.65
2018-07-20T14:51:27.338Z,4.70
2018-07-20T14:54:02.076Z,4.58
2018-07-20T14:56:37.887Z,5.83
2018-07-20T14:59:14.908Z,5.00
2018-07-20T15:01:50.726Z,4.83
2018-07-20T15:04:27.137Z,6.33
2018-07-20T15:07:00.458Z,5.15
2018-07-20T15:09:34.478Z,5.35
2018-07-20T15:12:07.306Z,6.75
2018-07-20T15:14:42.028Z,4.70
2018-07-20T15:17:15.906Z,4.03
2018-07-20T15:19:54.971Z,5.12
2018-07-20T15:22:30.692Z,5.78
2018-07-20T15:25:08.659Z,4.97
2018-07-20T15:27:44.364Z,5.78
2018-07-20T15:30:20.636Z,5.58
2018-07-20T15:32:56.038Z,4.97
2018-07-20T15:35:30.720Z,5.12
2018-07-20T15:38:06.474Z,5.87
2018-07-20T15:40:41.308Z,4.97
2018-07-20T15:43:14.882Z,4.95
2018-07-20T15:46:05.319Z,6.95
2018-07-20T15:48:22.264Z,4.53
2018-07-20T15:50:57.042Z,4.50
2018-07-20T15:53:39.825Z,7.37
2018-07-20T15:56:14.927Z,5.17
2018-07-20T15:58:47.807Z,4.35
2018-07-20T16:01:20.681Z,5.72
2018-07-20T16:03:54.593Z,5.30
2018-07-20T16:06:27.421Z,4.50
2018-07-20T16:09:02.074Z,6.42
2018-07-20T16:11:36.325Z,4.67
2018-07-20T16:14:14.061Z,4.37
2018-07-20T16:16:48.667Z,4.97
2018-07-20T16:19:15.768Z,5.42
2018-07-20T16:21:48.715Z,8.55
2018-07-20T16:24:22.751Z,4.42
2018-07-20T16:26:56.376Z,5.17
2018-07-20T16:29:29.310Z,4.78
2018-07-20T16:32:05.191Z,6.80
2018-07-20T16:34:39.785Z,6.67
2018-07-20T16:37:12.732Z,5.60
2018-07-20T16:39:46.549Z,5.78
2018-07-20T16:42:20.434Z,8.13
2018-07-20T16:45:02.344Z,5.85
2018-07-20T16:47:36.331Z,6.85
2018-07-20T16:50:12.072Z,4.50
2018-07-20T16:52:46.397Z,5.25
2018-07-20T16:55:19.295Z,4.80
2018-07-20T16:57:53.412Z,4.80
2018-07-20T17:00:30.107Z,8.18
2018-07-20T17:03:05.841Z,4.22
2018-07-20T17:05:40.249Z,6.75
2018-07-20T17:08:14.634Z,5.33
2018-07-20T17:10:48.515Z,9.58
2018-07-20T17:13:25.240Z,5.12
2018-07-20T17:16:02.257Z,5.30
2018-07-20T17:18:38.745Z,6.30
2018-07-20T17:21:11.603Z,8.18
2018-07-20T17:23:46.536Z,4.53
2018-07-20T17:26:22.253Z,5.92
2018-07-20T17:28:57.292Z,5.50
2018-07-20T17:31:32.200Z,4.60
2018-07-20T17:34:06.391Z,5.72
2018-07-20T17:36:40.568Z,6.42
2018-07-20T17:39:16.358Z,5.80
2018-07-20T17:41:50.522Z,6.40
2018-07-20T17:44:25.264Z,6.90
2018-07-20T17:46:51.877Z,5.30
2018-07-20T17:49:29.011Z,6.65
2018-07-20T17:52:04.724Z,5.72
2018-07-20T17:54:38.565Z,7.35
2018-07-20T17:57:12.320Z,5.25
2018-07-20T17:59:46.196Z,6.03
2018-07-20T18:02:22.185Z,4.47
2018-07-20T18:04:57.089Z,8.00
2018-07-20T18:07:30.760Z,4.97
2018-07-20T18:10:07.068Z,6.83
2018-07-20T18:12:40.307Z,8.28
2018-07-20T18:15:14.260Z,4.60
2018-07-20T18:17:48.130Z,4.60
2018-07-20T18:20:21.962Z,4.95
2018-07-20T18:22:55.005Z,5.50
2018-07-20T18:25:29.839Z,5.05
2018-07-20T18:28:03.630Z,5.40
2018-07-20T18:30:37.330Z,5.45
2018-07-20T18:33:10.477Z,5.30
2018-07-20T18:35:46.287Z,4.92
2018-07-20T18:38:20.259Z,4.67
2018-07-20T18:40:54.686Z,5.08
2018-07-20T18:43:29.618Z,7.25
2018-07-20T18:46:02.549Z,5.55
2018-07-20T18:48:35.380Z,4.70
2018-07-20T18:51:10.524Z,8.58
2018-07-20T18:53:46.204Z,7.58
2018-07-20T18:56:20.849Z,6.08
2018-07-20T18:58:54.770Z,7.42
2018-07-20T19:01:31.374Z,7.15
2018-07-20T19:04:06.771Z,8.93
2018-07-20T19:06:44.698Z,4.47
2018-07-20T19:09:12.370Z,7.35
2018-07-20T19:11:38.420Z,6.20
2018-07-20T19:14:16.291Z,9.95
2018-07-20T19:16:51.972Z,8.50
2018-07-20T19:19:26.969Z,4.97
2018-07-20T19:21:53.599Z,7.95
2018-07-20T19:24:28.231Z,5.42
2018-07-20T19:27:04.109Z,9.30
2018-07-20T19:29:39.249Z,6.75
2018-07-20T19:32:22.151Z,6.45
2018-07-20T19:34:51.948Z,9.78
2018-07-20T19:37:27.663Z,7.67
2018-07-20T19:40:01.726Z,9.00
2018-07-20T19:42:37.213Z,6.20
2018-07-20T19:45:15.249Z,7.08
2018-07-20T19:47:51.451Z,6.33
2018-07-20T19:50:18.347Z,7.72
2018-07-20T19:52:54.514Z,6.70
2018-07-20T19:55:33.340Z,5.30
2018-07-20T19:58:10.145Z,7.05
2018-07-20T20:00:49.139Z,6.60
2018-07-20T20:03:25.897Z,8.90
2018-07-20T20:06:00.495Z,8.90
2018-07-20T20:08:27.233Z,7.77
2018-07-20T20:11:03.060Z,6.60
2018-07-20T20:13:38.049Z,9.80
2018-07-20T20:16:11.714Z,6.60
2018-07-20T20:18:48.833Z,5.70
2018-07-20T20:21:23.727Z,5.47
2018-07-20T20:24:03.747Z,6.20
2018-07-20T20:26:38.522Z,6.23
2018-07-20T20:29:13.965Z,7.47
2018-07-20T20:31:50.337Z,8.07
2018-07-20T20:34:22.099Z,6.77
2018-07-20T20:36:57.148Z,6.10
2018-07-20T20:39:31.288Z,6.37
2018-07-20T20:42:05.781Z,9.07
2018-07-20T20:44:33.721Z,5.13
2018-07-20T20:47:06.573Z,5.70
2018-07-20T20:49:39.338Z,6.10
2018-07-20T20:52:14.255Z,5.27
2018-07-20T20:54:51.693Z,5.03
2018-07-20T20:57:26.917Z,7.67
2018-07-20T21:00:05.560Z,9.13
2018-07-20T21:02:40.143Z,5.60
2018-07-20T21:05:17.494Z,5.53
2018-07-20T21:07:56.051Z,6.33
2018-07-20T21:10:30.090Z,6.33
2018-07-20T21:13:07.762Z,7.87
2018-07-20T21:15:42.544Z,7.37
2018-07-20T21:18:20.674Z,9.17
2018-07-20T21:20:50.722Z,9.93
2018-07-20T21:23:26.953Z,5.33
2018-07-20T21:26:02.961Z,5.80
2018-07-20T21:28:41.893Z,7.80
2018-07-20T21:31:15.902Z,6.87
2018-07-20T21:33:48.949Z,8.70
2018-07-20T21:36:23.957Z,8.87
2018-07-20T21:38:59.754Z,6.33
2018-07-20T21:41:36.412Z,8.67
2018-07-20T21:44:11.523Z,9.90
2018-07-20T21:46:45.293Z,5.70
2018-07-20T21:49:20.538Z,9.13
2018-07-20T21:51:54.433Z,5.27
2018-07-20T21:54:27.693Z,6.10
2018-07-20T21:57:06.549Z,6.50
2018-07-20T21:59:45.165Z,6.40
2018-07-20T22:02:20.502Z,5.23
2018-07-20T22:04:54.430Z,5.37
2018-07-20T22:07:31.113Z,9.50
2018-07-20T22:10:07.057Z,9.10
2018-07-20T22:12:44.725Z,7.93
2018-07-20T22:15:18.691Z,7.93
2018-07-20T22:17:53.204Z,6.17
2018-07-20T22:20:32.137Z,5.20
2018-07-20T22:25:07.520Z,4.77
2018-07-20T22:27:41.266Z,6.87
2018-07-20T22:30:19.234Z,8.57
2018-07-20T22:32:58.618Z,9.00
2018-07-20T22:35:33.366Z,5.10
2018-07-20T22:38:08.747Z,5.27
2018-07-20T22:40:47.025Z,7.00
2018-07-20T22:43:20.556Z,7.47
2018-07-20T22:45:55.344Z,6.77
2018-07-20T22:48:31.388Z,6.47
2018-07-20T22:51:09.613Z,10.17
2018-07-20T22:53:45.603Z,6.80
2018-07-20T22:56:44.531Z,6.60
2018-07-20T22:59:25.313Z,5.77
2018-07-20T23:02:06.037Z,6.30
2018-07-20T23:04:44.474Z,8.00
2018-07-20T23:07:20.313Z,8.53
2018-07-20T23:09:56.006Z,6.87
2018-07-20T23:12:43.561Z,5.60
2018-07-20T23:15:25.737Z,11.90
2018-07-20T23:18:16.933Z,6.73
2018-07-20T23:20:59.550Z,11.50
2018-07-20T23:23:36.738Z,6.87
2018-07-20T23:26:14.313Z,6.60
2018-07-20T23:28:49.421Z,8.27
2018-07-20T23:31:23.324Z,6.20
2018-07-20T23:33:59.095Z,9.23
2018-07-20T23:36:32.953Z,7.80
2018-07-20T23:39:08.577Z,8.97
2018-07-20T23:41:13.255Z,8.60
2018-07-20T23:43:19.355Z,10.50
2018-07-20T23:45:24.327Z,9.73
2018-07-20T23:47:29.737Z,9.03
2018-07-20T23:49:33.631Z,8.53
2018-07-20T23:51:41.221Z,6.60
2018-07-20T23:53:49.564Z,7.43
2018-07-20T23:55:54.520Z,6.50
2018-07-20T23:58:03.552Z,9.17
